Time;durP1;ratioP1;P1;durP2;ratioP2;P2;SDS_P1;SDS_P2;PMS_P1;PMS_P2;Temp;Humidity;BMP_temperature;BMP_pressure;BME280_temperature;BME280_humidity;BME280_pressure;Samples;Min_cycle;Max_cycle;Signal;HPM_P1;HPM_P2
2023/03/07 00:01:22;;;;;;;;;;;3.90;99.90;;;;;;5055804;28;19909;-48
2023/03/07 00:03:48;;;;;;;;;;;4.00;99.90;;;;;;5054688;28;19946;-46
2023/03/07 00:06:13;;;;;;;;;;;4.00;99.90;;;;;;5055452;28;19975;-45
2023/03/07 00:08:39;;;;;;;;;;;3.90;99.90;;;;;;5055210;28;19920;-45
2023/03/07 00:11:05;;;;;;;;;;;4.00;99.90;;;;;;5054542;28;19974;-45
2023/03/07 00:13:32;;;;;;;;;;;4.00;99.90;;;;;;5055499;28;19916;-45
2023/03/07 00:16:01;;;;;;;;;;;4.00;99.90;;;;;;5055265;28;19916;-44
2023/03/07 00:18:27;;;;;;;;;;;4.00;99.90;;;;;;5054669;28;19958;-46
2023/03/07 00:20:56;;;;;;;;;;;4.00;99.90;;;;;;5055239;28;20020;-47
2023/03/07 00:23:22;;;;;;;;;;;4.00;99.90;;;;;;5054975;28;20011;-44
2023/03/07 00:25:55;;;;;;;;;;;4.00;99.90;;;;;;5054297;28;19999;-46
2023/03/07 00:28:20;;;;;;;;;;;4.00;99.90;;;;;;5055010;28;19912;-46
2023/03/07 00:30:46;;;;;;;;;;;4.00;99.90;;;;;;5054986;28;19916;-48
2023/03/07 00:33:11;;;;;;;;;;;4.00;99.90;;;;;;5054510;28;19986;-45
2023/03/07 00:35:37;;;;;;;;;;;4.00;99.90;;;;;;5055046;28;20356;-48
2023/03/07 00:38:02;;;;;;;;;;;4.00;99.90;;;;;;5054708;28;19913;-47
2023/03/07 00:40:27;;;;;;;;;;;4.00;99.90;;;;;;5054070;28;19963;-45
2023/03/07 00:42:53;;;;;;;;;;;4.00;99.90;;;;;;5055070;28;19912;-46
2023/03/07 00:45:19;;;;;;;;;;;4.00;99.90;;;;;;5054684;28;19936;-45
2023/03/07 00:47:44;;;;;;;;;;;4.10;99.90;;;;;;5054003;28;19916;-45
2023/03/07 00:50:10;;;;;;;;;;;4.10;99.90;;;;;;5054637;28;19916;-47
2023/03/07 00:52:35;;;;;;;;;;;4.10;99.90;;;;;;5054419;28;20007;-44
2023/03/07 00:55:01;;;;;;;;;;;4.10;99.90;;;;;;5053770;28;19947;-44
2023/03/07 00:57:26;;;;;;;;;;;4.10;99.90;;;;;;5054359;28;20285;-47
2023/03/07 00:59:51;;;;;;;;;;;4.10;99.90;;;;;;5054289;28;19956;-43
2023/03/07 01:02:17;;;;;;;;;;;4.10;99.90;;;;;;5053751;28;20352;-48
2023/03/07 01:04:42;;;;;;;;;;;4.10;99.90;;;;;;5054573;28;19915;-46
2023/03/07 01:07:08;;;;;;;;;;;4.10;99.90;;;;;;5058604;28;19931;-45
2023/03/07 01:09:33;;;;;;;;;;;4.10;99.90;;;;;;5074141;28;19916;-43
2023/03/07 01:11:59;;;;;;;;;;;4.10;99.90;;;;;;5074167;28;19908;-47
2023/03/07 01:14:24;;;;;;;;;;;4.10;99.90;;;;;;5073458;28;20704;-46
2023/03/07 01:16:50;;;;;;;;;;;4.10;99.90;;;;;;5074144;28;19910;-45
2023/03/07 01:19:15;;;;;;;;;;;4.00;99.90;;;;;;5073985;28;20371;-47
2023/03/07 01:21:42;;;;;;;;;;;4.00;99.90;;;;;;5073093;28;19908;-44
2023/03/07 01:24:10;;;;;;;;;;;4.00;99.90;;;;;;5073809;28;20290;-48
2023/03/07 01:26:36;;;;;;;;;;;3.90;99.90;;;;;;5074006;28;19966;-44
2023/03/07 01:29:03;;;;;;;;;;;3.90;99.90;;;;;;5073171;28;19908;-46
2023/03/07 01:31:29;;;;;;;;;;;3.90;99.90;;;;;;5073703;28;19986;-46
2023/03/07 01:33:55;;;;;;;;;;;3.90;99.90;;;;;;5073818;28;19908;-46
2023/03/07 01:36:27;;;;;;;;;;;3.90;99.90;;;;;;5072876;28;19999;-45
2023/03/07 01:38:53;;;;;;;;;;;3.80;99.90;;;;;;5054047;28;19982;-47
2023/03/07 01:41:19;;;;;;;;;;;3.80;99.90;;;;;;5053879;28;19917;-43
2023/03/07 01:43:44;;;;;;;;;;;3.90;99.90;;;;;;5052817;28;19909;-47
2023/03/07 01:46:16;;;;;;;;;;;3.90;99.90;;;;;;5053405;28;19924;-44
2023/03/07 01:48:52;;;;;;;;;;;3.90;99.90;;;;;;5053593;28;20399;-46
2023/03/07 01:51:18;;;;;;;;;;;3.90;99.90;;;;;;5063294;28;19919;-48
2023/03/07 01:53:44;;;;;;;;;;;3.90;99.90;;;;;;5053394;28;19909;-45
2023/03/07 01:56:10;;;;;;;;;;;3.90;99.90;;;;;;5053280;28;20363;-44
2023/03/07 01:58:36;;;;;;;;;;;3.80;99.90;;;;;;5052307;28;19929;-43
2023/03/07 02:01:02;;;;;;;;;;;3.80;99.90;;;;;;5053321;28;19916;-46
2023/03/07 02:03:47;;;;;;;;;;;3.80;99.90;;;;;;5052560;28;20284;-45
2023/03/07 02:06:12;;;;;;;;;;;3.80;99.90;;;;;;5053233;28;19921;-46
2023/03/07 02:08:39;;;;;;;;;;;3.70;99.90;;;;;;5054063;28;20009;-46
2023/03/07 02:11:04;;;;;;;;;;;3.60;99.90;;;;;;5052213;28;20360;-48
2023/03/07 02:13:30;;;;;;;;;;;3.60;99.90;;;;;;5053083;28;19915;-46
2023/03/07 02:15:56;;;;;;;;;;;3.60;99.90;;;;;;5053054;28;20355;-50
2023/03/07 02:18:24;;;;;;;;;;;3.60;99.90;;;;;;5052168;28;19962;-44
2023/03/07 02:20:58;;;;;;;;;;;3.60;99.90;;;;;;5053214;28;19916;-47
2023/03/07 02:23:24;;;;;;;;;;;3.60;99.90;;;;;;5053154;28;19908;-45
2023/03/07 02:25:55;;;;;;;;;;;3.60;99.90;;;;;;5052188;28;19923;-48
2023/03/07 02:28:20;;;;;;;;;;;3.70;99.90;;;;;;5052751;28;20372;-48
2023/03/07 02:30:53;;;;;;;;;;;3.70;99.90;;;;;;5052786;28;19913;-48
2023/03/07 02:33:21;;;;;;;;;;;3.70;99.90;;;;;;5051972;28;20405;-48
2023/03/07 02:35:48;;;;;;;;;;;3.70;99.90;;;;;;5052774;28;20375;-47
2023/03/07 02:38:13;;;;;;;;;;;3.70;99.90;;;;;;5061892;28;20359;-50
2023/03/07 02:40:39;;;;;;;;;;;3.70;99.90;;;;;;5070334;28;19974;-50
2023/03/07 02:43:08;;;;;;;;;;;3.70;99.90;;;;;;5072614;28;20007;-50
2023/03/07 02:45:33;;;;;;;;;;;3.70;99.90;;;;;;5071976;28;20366;-49
2023/03/07 02:47:59;;;;;;;;;;;3.70;99.90;;;;;;5072930;28;19959;-53
2023/03/07 02:50:24;;;;;;;;;;;3.70;99.90;;;;;;5072684;28;19909;-51
2023/03/07 02:52:50;;;;;;;;;;;3.60;99.90;;;;;;5071864;28;20322;-47
2023/03/07 02:55:15;;;;;;;;;;;3.70;99.90;;;;;;5072577;28;20003;-49
2023/03/07 02:57:41;;;;;;;;;;;3.60;99.90;;;;;;5072433;28;19909;-47
2023/03/07 03:00:07;;;;;;;;;;;3.60;99.90;;;;;;5071758;28;19973;-46
2023/03/07 03:02:32;;;;;;;;;;;3.60;99.90;;;;;;5072692;28;20347;-50
2023/03/07 03:04:58;;;;;;;;;;;3.60;99.90;;;;;;5072657;28;19908;-49
2023/03/07 03:07:23;;;;;;;;;;;3.60;99.90;;;;;;5070850;28;19978;-49
2023/03/07 03:09:49;;;;;;;;;;;3.50;99.90;;;;;;5065950;28;19913;-46
2023/03/07 03:12:14;;;;;;;;;;;3.40;99.90;;;;;;5052589;28;19921;-48
2023/03/07 03:14:40;;;;;;;;;;;3.50;99.90;;;;;;5051531;28;19916;-48
2023/03/07 03:17:05;;;;;;;;;;;3.40;99.90;;;;;;5052209;28;19913;-48
2023/03/07 03:19:31;;;;;;;;;;;3.40;99.90;;;;;;5052356;28;20329;-51
2023/03/07 03:21:56;;;;;;;;;;;3.40;99.90;;;;;;5051560;28;19909;-47
2023/03/07 03:24:22;;;;;;;;;;;3.40;99.90;;;;;;5052172;28;20417;-50
2023/03/07 03:26:47;;;;;;;;;;;3.40;99.90;;;;;;5052125;28;20066;-50
2023/03/07 03:29:13;;;;;;;;;;;3.40;99.90;;;;;;5051925;28;19909;-48
2023/03/07 03:31:39;;;;;;;;;;;3.40;99.90;;;;;;5056060;28;19966;-51
2023/03/07 03:34:04;;;;;;;;;;;3.40;99.90;;;;;;5056012;28;19909;-47
2023/03/07 03:36:30;;;;;;;;;;;3.40;99.90;;;;;;5055494;28;20380;-47
2023/03/07 03:38:56;;;;;;;;;;;3.40;99.90;;;;;;5056112;28;19956;-49
2023/03/07 03:41:22;;;;;;;;;;;3.40;99.90;;;;;;5055785;28;19912;-50
2023/03/07 03:43:47;;;;;;;;;;;3.30;99.90;;;;;;5055190;28;20386;-47
2023/03/07 03:46:13;;;;;;;;;;;3.30;99.90;;;;;;5055647;28;19921;-46
2023/03/07 03:48:39;;;;;;;;;;;3.30;99.90;;;;;;5056101;28;20372;-51
2023/03/07 03:51:06;;;;;;;;;;;3.30;99.90;;;;;;5055028;28;19955;-46
2023/03/07 03:53:32;;;;;;;;;;;3.20;99.90;;;;;;5055792;28;19909;-47
2023/03/07 03:56:05;;;;;;;;;;;3.30;99.90;;;;;;5054779;28;19989;-50
2023/03/07 03:58:32;;;;;;;;;;;3.20;99.90;;;;;;5055494;28;20011;-48
2023/03/07 04:00:59;;;;;;;;;;;3.30;99.90;;;;;;5055598;28;19909;-46
2023/03/07 04:03:24;;;;;;;;;;;3.30;99.90;;;;;;5054992;28;19909;-47
2023/03/07 04:05:50;;;;;;;;;;;3.30;99.90;;;;;;5055499;28;19931;-46
2023/03/07 04:08:15;;;;;;;;;;;3.30;99.90;;;;;;5055384;28;20299;-51
2023/03/07 04:10:41;;;;;;;;;;;3.30;99.90;;;;;;5054605;28;19973;-45
2023/03/07 04:13:06;;;;;;;;;;;3.30;99.90;;;;;;5055337;28;19942;-47
2023/03/07 04:15:32;;;;;;;;;;;3.20;99.90;;;;;;5055402;28;19963;-48
2023/03/07 04:17:57;;;;;;;;;;;3.20;99.90;;;;;;5054444;28;19909;-46
2023/03/07 04:20:22;;;;;;;;;;;3.20;99.90;;;;;;5055156;28;19909;-49
2023/03/07 04:22:48;;;;;;;;;;;3.10;99.90;;;;;;5055109;28;19990;-49
2023/03/07 04:25:13;;;;;;;;;;;3.00;99.90;;;;;;5054341;28;19913;-49
2023/03/07 04:27:39;;;;;;;;;;;3.00;99.90;;;;;;5055275;28;19964;-47
2023/03/07 04:30:04;;;;;;;;;;;3.00;99.90;;;;;;5055057;28;19909;-46
2023/03/07 04:32:30;;;;;;;;;;;2.90;99.90;;;;;;5054472;28;19909;-50
2023/03/07 04:34:55;;;;;;;;;;;2.90;99.90;;;;;;5055131;28;20279;-45
2023/03/07 04:37:21;;;;;;;;;;;2.90;99.90;;;;;;5055973;28;19909;-45
2023/03/07 04:39:46;;;;;;;;;;;2.80;99.90;;;;;;5073400;28;20165;-47
2023/03/07 04:42:13;;;;;;;;;;;2.90;99.90;;;;;;5074723;28;19991;-49
2023/03/07 04:44:38;;;;;;;;;;;2.90;99.90;;;;;;5074760;28;19995;-47
2023/03/07 04:47:03;;;;;;;;;;;3.00;99.90;;;;;;5073545;28;20011;-45
2023/03/07 04:49:29;;;;;;;;;;;3.00;99.90;;;;;;5074982;28;19909;-46
2023/03/07 04:51:54;;;;;;;;;;;3.00;99.90;;;;;;5074722;28;20371;-46
2023/03/07 04:54:20;;;;;;;;;;;3.00;99.90;;;;;;5074022;28;19998;-47
2023/03/07 04:56:45;;;;;;;;;;;3.10;99.90;;;;;;5074462;28;19912;-47
2023/03/07 04:59:11;;;;;;;;;;;3.10;99.90;;;;;;5080998;28;20331;-49
2023/03/07 05:01:36;;;;;;;;;;;3.10;99.90;;;;;;5094691;28;19908;-46
2023/03/07 05:04:02;;;;;;;;;;;3.10;99.90;;;;;;5094518;28;20053;-46
2023/03/07 05:06:27;;;;;;;;;;;3.10;99.90;;;;;;5093670;28;20295;-46
2023/03/07 05:08:53;;;;;;;;;;;3.10;99.90;;;;;;5093694;28;19918;-47
2023/03/07 05:11:18;;;;;;;;;;;3.10;99.90;;;;;;5094365;28;19959;-46
2023/03/07 05:13:44;;;;;;;;;;;3.00;99.90;;;;;;5093645;28;19907;-45
2023/03/07 05:16:09;;;;;;;;;;;3.00;99.90;;;;;;5094334;28;20002;-50
2023/03/07 05:18:35;;;;;;;;;;;3.10;99.90;;;;;;5094377;28;20015;-45
2023/03/07 05:21:00;;;;;;;;;;;3.10;99.90;;;;;;5093453;28;19908;-47
2023/03/07 05:23:25;;;;;;;;;;;3.00;99.90;;;;;;5094352;28;20271;-47
2023/03/07 05:25:51;;;;;;;;;;;3.00;99.90;;;;;;5094659;28;19912;-48
2023/03/07 05:28:17;;;;;;;;;;;3.10;99.90;;;;;;5093305;28;19916;-47
2023/03/07 05:30:43;;;;;;;;;;;3.20;99.90;;;;;;5094086;28;19916;-48
2023/03/07 05:33:08;;;;;;;;;;;3.20;99.90;;;;;;5094082;28;20268;-46
2023/03/07 05:35:34;;;;;;;;;;;3.20;99.90;;;;;;5093501;28;19974;-48
2023/03/07 05:37:59;;;;;;;;;;;3.30;99.90;;;;;;5093371;28;19923;-48
2023/03/07 05:40:24;;;;;;;;;;;3.30;99.90;;;;;;5094082;28;19909;-47
2023/03/07 05:42:50;;;;;;;;;;;3.40;99.90;;;;;;5093240;28;20389;-48
2023/03/07 05:45:15;;;;;;;;;;;3.30;99.90;;;;;;5094023;28;19908;-50
2023/03/07 05:47:41;;;;;;;;;;;3.30;99.90;;;;;;5093679;28;20359;-46
2023/03/07 05:50:08;;;;;;;;;;;3.30;99.90;;;;;;5093164;28;20386;-46
2023/03/07 05:52:33;;;;;;;;;;;3.30;99.90;;;;;;5093129;28;19909;-52
2023/03/07 05:54:59;;;;;;;;;;;3.30;99.90;;;;;;5093206;28;19912;-45
2023/03/07 05:57:24;;;;;;;;;;;3.40;99.90;;;;;;5092814;28;20376;-48
2023/03/07 05:59:49;;;;;;;;;;;3.40;99.90;;;;;;5093440;28;19920;-45
2023/03/07 06:02:15;;;;;;;;;;;3.40;99.90;;;;;;5093373;28;20015;-46
2023/03/07 06:04:41;;;;;;;;;;;3.50;99.90;;;;;;5092722;28;20341;-46
2023/03/07 06:07:06;;;;;;;;;;;3.50;99.90;;;;;;5093206;28;20375;-47
2023/03/07 06:09:32;;;;;;;;;;;3.50;99.90;;;;;;5092013;28;19913;-47
2023/03/07 06:11:57;;;;;;;;;;;3.50;99.90;;;;;;5093285;28;20284;-53
2023/03/07 06:14:23;;;;;;;;;;;3.50;99.90;;;;;;5088886;28;19923;-50
2023/03/07 06:16:49;;;;;;;;;;;3.40;99.90;;;;;;5072318;28;20485;-47
2023/03/07 06:19:14;;;;;;;;;;;3.40;99.90;;;;;;5073175;28;19940;-47
2023/03/07 06:21:41;;;;;;;;;;;3.40;99.90;;;;;;5072912;28;19954;-47
2023/03/07 06:24:06;;;;;;;;;;;3.40;99.90;;;;;;5072194;28;19916;-45
2023/03/07 06:26:32;;;;;;;;;;;3.40;99.90;;;;;;5073033;28;19913;-49
2023/03/07 06:28:58;;;;;;;;;;;3.50;99.90;;;;;;5072946;28;19920;-48
2023/03/07 06:31:24;;;;;;;;;;;3.50;99.90;;;;;;5078757;28;19965;-50
2023/03/07 06:33:49;;;;;;;;;;;3.50;99.90;;;;;;5077933;28;19913;-46
2023/03/07 06:36:16;;;;;;;;;;;3.50;99.90;;;;;;5078171;28;19916;-46
2023/03/07 06:38:41;;;;;;;;;;;3.50;99.90;;;;;;5077284;28;20367;-47
2023/03/07 06:41:07;;;;;;;;;;;3.50;99.90;;;;;;5072898;28;19914;-47
2023/03/07 06:43:32;;;;;;;;;;;3.60;99.90;;;;;;5072780;28;19919;-45
2023/03/07 06:45:58;;;;;;;;;;;3.60;99.90;;;;;;5073010;28;20341;-47
2023/03/07 06:48:23;;;;;;;;;;;3.60;99.90;;;;;;5090033;28;19967;-52
2023/03/07 06:50:49;;;;;;;;;;;3.60;99.90;;;;;;5092729;28;19912;-45
2023/03/07 06:53:15;;;;;;;;;;;3.60;99.90;;;;;;5091795;28;20338;-46
2023/03/07 06:55:40;;;;;;;;;;;3.60;99.90;;;;;;5088628;28;19954;-47
2023/03/07 06:58:05;;;;;;;;;;;3.50;99.90;;;;;;5072290;28;19919;-46
2023/03/07 07:00:31;;;;;;;;;;;3.30;99.90;;;;;;5071522;28;19920;-45
2023/03/07 07:02:56;;;;;;;;;;;3.20;99.90;;;;;;5072639;28;19959;-45
2023/03/07 07:05:22;;;;;;;;;;;3.10;99.90;;;;;;5074952;28;19909;-45
2023/03/07 07:07:47;;;;;;;;;;;2.90;99.90;;;;;;5095057;28;19967;-42
2023/03/07 07:10:13;;;;;;;;;;;2.90;99.90;;;;;;5096689;28;20367;-44
2023/03/07 07:12:39;;;;;;;;;;;2.80;99.90;;;;;;5096753;28;19970;-44
2023/03/07 07:15:04;;;;;;;;;;;2.80;99.90;;;;;;5094073;28;19912;-44
2023/03/07 07:17:30;;;;;;;;;;;2.80;99.90;;;;;;5085348;28;19981;-46
2023/03/07 07:19:56;;;;;;;;;;;2.80;99.90;;;;;;5095740;28;20381;-43
2023/03/07 07:22:22;;;;;;;;;;;2.80;99.90;;;;;;5096384;28;19961;-46
2023/03/07 07:24:48;;;;;;;;;;;2.90;99.90;;;;;;5096530;28;20363;-47
2023/03/07 07:27:13;;;;;;;;;;;2.90;99.90;;;;;;5095676;28;19923;-48
2023/03/07 07:29:39;;;;;;;;;;;3.00;99.90;;;;;;5078405;28;19961;-45
2023/03/07 07:32:05;;;;;;;;;;;3.00;99.90;;;;;;5096454;28;19908;-45
2023/03/07 07:34:30;;;;;;;;;;;3.00;99.90;;;;;;5095450;28;19915;-44
2023/03/07 07:36:56;;;;;;;;;;;3.00;99.90;;;;;;5096221;28;19999;-45
2023/03/07 07:39:23;;;;;;;;;;;3.10;99.90;;;;;;5096165;28;19908;-44
2023/03/07 07:41:48;;;;;;;;;;;3.10;99.90;;;;;;5095321;28;20392;-45
2023/03/07 07:44:14;;;;;;;;;;;3.10;99.90;;;;;;5086035;28;19912;-44
2023/03/07 07:46:39;;;;;;;;;;;3.20;99.90;;;;;;5075609;28;19917;-44
2023/03/07 07:49:05;;;;;;;;;;;3.10;99.90;;;;;;5075026;28;20291;-45
2023/03/07 07:51:30;;;;;;;;;;;3.20;99.90;;;;;;5077181;28;19915;-45
2023/03/07 07:53:56;;;;;;;;;;;3.20;99.90;;;;;;5095964;28;19909;-49
2023/03/07 07:56:21;;;;;;;;;;;3.20;99.90;;;;;;5094905;28;19915;-47
2023/03/07 07:58:47;;;;;;;;;;;3.20;99.90;;;;;;5095514;28;19920;-45
2023/03/07 08:01:12;;;;;;;;;;;3.30;99.90;;;;;;5094747;28;19915;-44
2023/03/07 08:03:38;;;;;;;;;;;3.30;99.90;;;;;;5093773;28;20260;-47
2023/03/07 08:06:03;;;;;;;;;;;3.30;99.90;;;;;;5094356;28;19916;-45
2023/03/07 08:08:29;;;;;;;;;;;3.40;99.90;;;;;;5094463;28;19912;-45
2023/03/07 08:10:54;;;;;;;;;;;3.40;99.90;;;;;;5093478;28;19908;-47
2023/03/07 08:13:20;;;;;;;;;;;3.40;99.90;;;;;;5094125;28;20370;-48
2023/03/07 08:15:45;;;;;;;;;;;3.50;99.90;;;;;;5093945;28;19956;-49
2023/03/07 08:18:11;;;;;;;;;;;3.50;99.90;;;;;;5093452;28;19908;-44
2023/03/07 08:20:37;;;;;;;;;;;3.50;99.90;;;;;;5094274;28;19969;-45
2023/03/07 08:23:03;;;;;;;;;;;3.50;99.90;;;;;;5085899;28;20017;-45
2023/03/07 08:25:28;;;;;;;;;;;3.60;99.90;;;;;;5082123;28;20355;-45
2023/03/07 08:27:54;;;;;;;;;;;3.60;99.90;;;;;;5085073;28;19946;-45
2023/03/07 08:30:21;;;;;;;;;;;3.60;99.90;;;;;;5073342;28;20371;-45
2023/03/07 08:32:50;;;;;;;;;;;3.70;99.90;;;;;;5082075;28;19919;-45
2023/03/07 08:35:16;;;;;;;;;;;3.70;99.90;;;;;;5088249;28;19912;-44
2023/03/07 08:37:41;;;;;;;;;;;3.70;99.90;;;;;;5092884;28;19953;-52
2023/03/07 08:40:07;;;;;;;;;;;3.80;99.90;;;;;;5089640;28;20290;-43
2023/03/07 08:42:33;;;;;;;;;;;3.80;99.90;;;;;;5075965;28;20283;-45
2023/03/07 08:44:58;;;;;;;;;;;3.80;99.90;;;;;;5072944;28;19908;-45
2023/03/07 08:47:24;;;;;;;;;;;3.80;99.90;;;;;;5073514;28;19983;-47
2023/03/07 08:49:49;;;;;;;;;;;3.80;99.90;;;;;;5077529;28;19923;-47
2023/03/07 08:52:15;;;;;;;;;;;3.80;99.90;;;;;;5092955;28;20395;-46
2023/03/07 08:54:40;;;;;;;;;;;3.80;99.90;;;;;;5093821;28;19909;-45
2023/03/07 08:57:06;;;;;;;;;;;3.90;99.90;;;;;;5093642;28;19912;-47
2023/03/07 08:59:31;;;;;;;;;;;4.00;99.90;;;;;;5030735;28;1760989;-44
2023/03/07 09:01:56;;;;;;;;;;;4.00;99.90;;;;;;5094893;28;19912;-46
2023/03/07 09:04:23;;;;;;;;;;;4.10;99.90;;;;;;5094485;28;19908;-44
2023/03/07 09:06:48;;;;;;;;;;;4.00;99.90;;;;;;5093795;28;19924;-45
2023/03/07 09:09:13;;;;;;;;;;;4.10;99.90;;;;;;5094400;28;20278;-46
2023/03/07 09:11:39;;;;;;;;;;;4.10;99.90;;;;;;5089622;28;19912;-46
2023/03/07 09:14:04;;;;;;;;;;;4.20;99.90;;;;;;5088356;28;19913;-47
2023/03/07 09:16:30;;;;;;;;;;;4.20;99.90;;;;;;5086626;28;19965;-45
2023/03/07 09:18:55;;;;;;;;;;;4.20;99.90;;;;;;5086206;28;20346;-46
2023/03/07 09:21:21;;;;;;;;;;;4.20;99.90;;;;;;5084468;28;19908;-45
2023/03/07 09:23:46;;;;;;;;;;;4.30;99.90;;;;;;5094478;28;20290;-50
2023/03/07 09:26:12;;;;;;;;;;;4.30;99.90;;;;;;5077380;28;19916;-45
2023/03/07 09:28:37;;;;;;;;;;;4.30;99.90;;;;;;5085214;28;19916;-45
2023/03/07 09:31:09;;;;;;;;;;;4.40;99.90;;;;;;5083211;28;19908;-46
2023/03/07 09:33:35;;;;;;;;;;;4.40;99.90;;;;;;5072983;28;19913;-46
2023/03/07 09:36:04;;;;;;;;;;;4.50;99.90;;;;;;5093392;28;19912;-49
2023/03/07 09:38:30;;;;;;;;;;;4.50;99.90;;;;;;5080055;28;19912;-45
2023/03/07 09:41:00;;;;;;;;;;;4.40;99.90;;;;;;5076240;28;19912;-49
2023/03/07 09:43:33;;;;;;;;;;;4.40;99.90;;;;;;5073147;28;19908;-48
2023/03/07 09:46:02;;;;;;;;;;;4.40;99.90;;;;;;5074315;28;19912;-47
2023/03/07 09:48:46;;;;;;;;;;;4.30;99.90;;;;;;5074513;28;19955;-46
2023/03/07 09:51:15;;;;;;;;;;;4.30;99.90;;;;;;5078899;28;20370;-48
2023/03/07 09:53:55;;;;;;;;;;;4.20;99.90;;;;;;5077321;28;19908;-47
2023/03/07 09:56:28;;;;;;;;;;;4.10;99.90;;;;;;5072263;28;19917;-50
2023/03/07 09:58:58;;;;;;;;;;;3.90;99.90;;;;;;5079346;28;19960;-52
2023/03/07 10:01:25;;;;;;;;;;;3.70;99.90;;;;;;5077688;28;19966;-49
2023/03/07 10:03:56;;;;;;;;;;;3.40;99.90;;;;;;5089592;28;19939;-44
2023/03/07 10:06:25;;;;;;;;;;;3.20;99.90;;;;;;5092877;28;19916;-44
2023/03/07 10:08:51;;;;;;;;;;;3.10;99.90;;;;;;5092609;28;19995;-44
2023/03/07 10:11:23;;;;;;;;;;;3.00;99.90;;;;;;5105133;28;19912;-46
2023/03/07 10:13:55;;;;;;;;;;;3.00;99.90;;;;;;5101182;28;19917;-46
2023/03/07 10:16:36;;;;;;;;;;;2.90;99.90;;;;;;5073603;28;20312;-45
2023/03/07 10:19:16;;;;;;;;;;;2.80;99.90;;;;;;5072557;28;19912;-45
2023/03/07 10:21:47;;;;;;;;;;;2.70;99.90;;;;;;5084633;28;20371;-45
2023/03/07 10:24:13;;;;;;;;;;;2.60;99.90;;;;;;5073087;28;19908;-46
2023/03/07 10:27:03;;;;;;;;;;;2.50;99.90;;;;;;5073436;28;20344;-48
2023/03/07 10:29:33;;;;;;;;;;;2.50;99.90;;;;;;5067924;28;19974;-51
2023/03/07 10:32:11;;;;;;;;;;;2.50;99.90;;;;;;5079771;28;19954;-46
2023/03/07 10:34:38;;;;;;;;;;;2.60;99.90;;;;;;5074650;28;19920;-50
2023/03/07 10:37:11;;;;;;;;;;;2.70;99.90;;;;;;5093054;28;19938;-45
2023/03/07 10:39:40;;;;;;;;;;;2.90;99.90;;;;;;5086674;28;19912;-45
2023/03/07 10:42:09;;;;;;;;;;;3.00;99.90;;;;;;5078999;28;20056;-46
2023/03/07 10:44:35;;;;;;;;;;;3.10;99.90;;;;;;5089229;28;19912;-45
2023/03/07 10:47:00;;;;;;;;;;;3.20;99.90;;;;;;5085349;28;19920;-47
2023/03/07 10:49:28;;;;;;;;;;;3.30;99.90;;;;;;5081600;28;19908;-44
2023/03/07 10:51:59;;;;;;;;;;;3.50;99.90;;;;;;5072833;28;19912;-44
2023/03/07 10:54:32;;;;;;;;;;;3.60;99.90;;;;;;5073038;28;20366;-44
2023/03/07 10:57:03;;;;;;;;;;;3.70;99.90;;;;;;5073368;28;19916;-45
2023/03/07 10:59:29;;;;;;;;;;;3.90;99.90;;;;;;5072393;28;19927;-45
2023/03/07 11:01:57;;;;;;;;;;;3.90;99.90;;;;;;5073453;28;19909;-45
2023/03/07 11:04:23;;;;;;;;;;;4.00;99.90;;;;;;5073063;28;19916;-46
2023/03/07 11:06:52;;;;;;;;;;;4.00;99.90;;;;;;5085257;28;20059;-49
2023/03/07 11:09:22;;;;;;;;;;;4.10;99.90;;;;;;5083449;28;20352;-44
2023/03/07 11:11:49;;;;;;;;;;;4.20;99.90;;;;;;5075673;28;19916;-44
2023/03/07 11:14:15;;;;;;;;;;;4.30;99.90;;;;;;5082443;28;19957;-46
2023/03/07 11:16:40;;;;;;;;;;;4.40;99.90;;;;;;5077829;28;19939;-50
2023/03/07 11:19:25;;;;;;;;;;;4.60;99.90;;;;;;5073685;28;20275;-52
2023/03/07 11:21:54;;;;;;;;;;;4.70;99.90;;;;;;5084656;28;19912;-47
2023/03/07 11:24:23;;;;;;;;;;;4.70;99.90;;;;;;5082608;28;20641;-54
2023/03/07 11:26:52;;;;;;;;;;;4.80;99.90;;;;;;5080629;28;19919;-47
2023/03/07 11:29:17;;;;;;;;;;;4.90;99.90;;;;;;5070047;28;19912;-47
2023/03/07 11:31:58;;;;;;;;;;;5.00;99.90;;;;;;5070899;28;19912;-47
2023/03/07 11:34:36;;;;;;;;;;;5.10;99.90;;;;;;5071338;28;19916;-48
2023/03/07 11:37:14;;;;;;;;;;;5.20;99.90;;;;;;5082960;28;20347;-46
2023/03/07 11:40:02;;;;;;;;;;;5.20;99.90;;;;;;5093073;28;19908;-48
2023/03/07 11:42:51;;;;;;;;;;;5.30;99.90;;;;;;5087188;28;19912;-51
2023/03/07 11:45:40;;;;;;;;;;;5.40;99.90;;;;;;5066763;28;19908;-48
2023/03/07 11:48:11;;;;;;;;;;;5.40;99.90;;;;;;5071833;28;19916;-47
2023/03/07 11:50:38;;;;;;;;;;;5.30;99.90;;;;;;5077469;28;20011;-49
2023/03/07 11:53:23;;;;;;;;;;;5.30;99.90;;;;;;5075947;28;19908;-46
2023/03/07 11:56:08;;;;;;;;;;;5.20;99.90;;;;;;5076065;28;19962;-45
2023/03/07 11:58:39;;;;;;;;;;;5.10;99.90;;;;;;5071671;28;19919;-46
2023/03/07 12:01:27;;;;;;;;;;;5.10;99.90;;;;;;5080653;28;19955;-48
2023/03/07 12:04:11;;;;;;;;;;;4.90;99.90;;;;;;5071196;28;19908;-46
2023/03/07 12:06:49;;;;;;;;;;;4.70;99.90;;;;;;5087649;28;20419;-47
2023/03/07 12:09:23;;;;;;;;;;;4.50;99.90;;;;;;5075499;28;20431;-49
2023/03/07 12:12:12;;;;;;;;;;;4.50;99.90;;;;;;5077703;28;19909;-46
2023/03/07 12:14:48;;;;;;;;;;;4.30;99.90;;;;;;5052801;28;19920;-54
2023/03/07 12:17:13;;;;;;;;;;;4.30;99.90;;;;;;5087963;28;19913;-49
2023/03/07 12:19:51;;;;;;;;;;;4.20;99.90;;;;;;5080467;28;19950;-47
2023/03/07 12:22:27;;;;;;;;;;;4.20;99.90;;;;;;5081498;28;20012;-58
2023/03/07 12:25:28;;;;;;;;;;;4.20;99.90;;;;;;5081258;28;19959;-51
2023/03/07 12:27:54;;;;;;;;;;;4.20;99.90;;;;;;5005002;28;19922;-48
2023/03/07 12:30:26;;;;;;;;;;;4.40;99.90;;;;;;5056768;28;19923;-46
2023/03/07 12:32:52;;;;;;;;;;;4.40;99.90;;;;;;5086560;28;19912;-48
2023/03/07 12:35:29;;;;;;;;;;;4.50;99.90;;;;;;5095343;28;19915;-48
2023/03/07 12:38:02;;;;;;;;;;;4.50;99.90;;;;;;5094687;28;19908;-54
2023/03/07 12:40:32;;;;;;;;;;;4.60;99.90;;;;;;5094913;28;19915;-49
2023/03/07 12:43:06;;;;;;;;;;;4.60;99.90;;;;;;5086351;28;19908;-47
2023/03/07 12:45:37;;;;;;;;;;;4.70;99.90;;;;;;5078447;28;19919;-50
2023/03/07 12:48:08;;;;;;;;;;;4.80;99.90;;;;;;5096424;28;19920;-49
2023/03/07 12:50:48;;;;;;;;;;;4.90;99.90;;;;;;5094075;28;20053;-48
2023/03/07 12:53:22;;;;;;;;;;;4.90;99.90;;;;;;5094282;28;19908;-49
2023/03/07 12:56:17;;;;;;;;;;;5.00;99.90;;;;;;5094907;28;20389;-47
2023/03/07 12:58:42;;;;;;;;;;;4.90;99.90;;;;;;5072854;28;19920;-52
2023/03/07 13:01:12;;;;;;;;;;;4.90;99.90;;;;;;5093108;28;19919;-55
2023/03/07 13:03:46;;;;;;;;;;;4.90;99.90;;;;;;5075645;28;19908;-51
2023/03/07 13:06:15;;;;;;;;;;;5.00;99.90;;;;;;5073951;28;19909;-50
2023/03/07 13:08:43;;;;;;;;;;;5.00;99.90;;;;;;5079665;28;20281;-53
2023/03/07 13:11:16;;;;;;;;;;;5.10;99.90;;;;;;5094283;28;19912;-50
2023/03/07 13:13:42;;;;;;;;;;;5.20;99.90;;;;;;5093925;28;19911;-52
2023/03/07 13:16:09;;;;;;;;;;;5.20;99.90;;;;;;5094480;28;19909;-51
2023/03/07 13:18:35;;;;;;;;;;;5.20;99.90;;;;;;5093624;28;19915;-52
2023/03/07 13:21:05;;;;;;;;;;;5.20;99.90;;;;;;5094440;28;19913;-49
2023/03/07 13:23:31;;;;;;;;;;;5.20;99.90;;;;;;5094342;28;19954;-49
2023/03/07 13:26:00;;;;;;;;;;;5.20;99.90;;;;;;5093713;28;19948;-52
2023/03/07 13:28:35;;;;;;;;;;;5.20;99.90;;;;;;5093972;28;19922;-51
2023/03/07 13:31:15;;;;;;;;;;;5.20;99.90;;;;;;5093863;28;20041;-51
2023/03/07 13:33:41;;;;;;;;;;;5.20;99.90;;;;;;5093168;28;19911;-51
2023/03/07 13:36:25;;;;;;;;;;;5.20;99.90;;;;;;5093991;28;19961;-53
2023/03/07 13:38:50;;;;;;;;;;;5.20;99.90;;;;;;5093799;28;19912;-51
2023/03/07 13:41:36;;;;;;;;;;;5.20;99.90;;;;;;5092986;28;19919;-50
2023/03/07 13:44:01;;;;;;;;;;;5.30;99.90;;;;;;5093647;28;19908;-52
2023/03/07 13:46:30;;;;;;;;;;;5.40;99.90;;;;;;5085760;28;19912;-52
2023/03/07 13:48:55;;;;;;;;;;;5.40;99.90;;;;;;5072458;28;19965;-58
2023/03/07 13:51:21;;;;;;;;;;;5.40;99.90;;;;;;5079922;28;20003;-52
2023/03/07 13:53:51;;;;;;;;;;;5.50;99.90;;;;;;5087670;28;19916;-49
2023/03/07 13:56:23;;;;;;;;;;;5.50;99.90;;;;;;5082551;28;19920;-54
2023/03/07 13:59:04;;;;;;;;;;;5.50;99.90;;;;;;5084016;28;19920;-50
2023/03/07 14:01:31;;;;;;;;;;;5.60;99.90;;;;;;5099183;28;19912;-50
2023/03/07 14:04:15;;;;;;;;;;;5.70;99.90;;;;;;5073657;28;20391;-52
2023/03/07 14:06:45;;;;;;;;;;;5.80;99.90;;;;;;5072885;28;19924;-56
2023/03/07 14:09:24;;;;;;;;;;;5.70;99.90;;;;;;5081583;28;19920;-54
2023/03/07 14:11:59;;;;;;;;;;;5.80;99.90;;;;;;5072262;28;20286;-51
2023/03/07 14:14:27;;;;;;;;;;;5.80;99.00;;;;;;5072473;28;19966;-51
2023/03/07 14:17:03;;;;;;;;;;;5.90;98.40;;;;;;5070994;28;20409;-52
2023/03/07 14:19:37;;;;;;;;;;;5.90;99.80;;;;;;5072160;28;20011;-48
2023/03/07 14:22:02;;;;;;;;;;;6.00;99.90;;;;;;5071267;28;19912;-54
2023/03/07 14:24:32;;;;;;;;;;;6.00;99.90;;;;;;5072074;28;20007;-52
2023/03/07 14:27:01;;;;;;;;;;;6.00;99.90;;;;;;5072196;28;19912;-52
2023/03/07 14:29:28;;;;;;;;;;;6.10;99.90;;;;;;5071102;28;20015;-54
2023/03/07 14:31:57;;;;;;;;;;;6.10;99.90;;;;;;5071888;28;19915;-52
2023/03/07 14:34:22;;;;;;;;;;;5.80;99.90;;;;;;5072176;28;19908;-52
2023/03/07 14:37:08;;;;;;;;;;;5.70;99.90;;;;;;5071834;28;19909;-52